createdAt,value
2022-10-05T00:00:44.576Z,19.90
2022-10-05T00:03:11.828Z,19.90
2022-10-05T00:05:38.908Z,19.90
2022-10-05T00:08:14.355Z,19.90
2022-10-05T00:10:41.576Z,19.90
2022-10-05T00:13:12.517Z,19.90
2022-10-05T00:15:39.201Z,19.90
2022-10-05T00:18:26.152Z,19.70
2022-10-05T00:20:53.102Z,19.90
2022-10-05T00:23:21.640Z,19.90
2022-10-05T00:25:48.319Z,19.90
2022-10-05T00:28:17.340Z,19.90
2022-10-05T00:30:44.120Z,19.90
2022-10-05T00:33:10.783Z,20.30
2022-10-05T00:35:37.479Z,19.90
2022-10-05T00:38:04.113Z,20.70
2022-10-05T00:40:41.964Z,19.70
2022-10-05T00:43:17.753Z,19.90
2022-10-05T00:45:47.632Z,19.90
2022-10-05T00:48:32.637Z,19.90
2022-10-05T00:50:59.360Z,19.80
2022-10-05T00:53:32.988Z,19.80
2022-10-05T00:56:18.135Z,19.90
2022-10-05T00:58:52.530Z,19.90
2022-10-05T01:01:27.757Z,19.80
2022-10-05T01:03:54.582Z,19.80
2022-10-05T01:06:44.695Z,19.90
2022-10-05T01:09:26.956Z,19.80
2022-10-05T01:12:08.871Z,19.80
2022-10-05T01:14:44.588Z,19.80
2022-10-05T01:17:11.239Z,19.80
2022-10-05T01:19:45.881Z,19.80
2022-10-05T01:22:21.594Z,20.20
2022-10-05T01:25:03.693Z,19.80
2022-10-05T01:27:33.353Z,19.80
2022-10-05T01:30:08.619Z,19.80
2022-10-05T01:32:43.748Z,19.80
2022-10-05T01:35:10.421Z,19.80
2022-10-05T01:37:54.529Z,19.80
2022-10-05T01:40:21.177Z,19.80
2022-10-05T01:42:50.795Z,19.80
2022-10-05T01:45:40.579Z,19.80
2022-10-05T01:48:25.879Z,19.80
2022-10-05T01:50:59.168Z,19.80
2022-10-05T01:53:44.675Z,20.10
2022-10-05T01:56:14.444Z,19.80
2022-10-05T01:59:08.090Z,19.70
2022-10-05T02:01:38.828Z,19.80
2022-10-05T02:04:49.726Z,20.30
2022-10-05T02:07:14.662Z,19.80
2022-10-05T02:09:51.373Z,20.40
2022-10-05T02:12:19.924Z,19.70
2022-10-05T02:14:49.311Z,19.80
2022-10-05T02:17:25.820Z,20.70
2022-10-05T02:19:54.534Z,19.70
2022-10-05T02:22:27.811Z,20.20
2022-10-05T02:24:56.990Z,19.80
2022-10-05T02:27:27.463Z,20.00
2022-10-05T02:29:57.055Z,19.70
2022-10-05T02:32:25.543Z,19.70
2022-10-05T02:34:52.259Z,19.70
2022-10-05T02:37:26.615Z,20.10
2022-10-05T02:40:01.479Z,19.70
2022-10-05T02:42:44.553Z,19.70
2022-10-05T02:45:26.660Z,19.70
2022-10-05T02:47:59.367Z,19.70
2022-10-05T02:50:45.243Z,20.20
2022-10-05T02:53:21.352Z,19.70
2022-10-05T02:55:47.940Z,19.70
2022-10-05T02:58:16.260Z,20.20
2022-10-05T03:00:46.399Z,19.70
2022-10-05T03:03:32.487Z,20.40
2022-10-05T03:06:07.737Z,19.70
2022-10-05T03:08:40.059Z,19.70
2022-10-05T03:11:25.634Z,19.70
2022-10-05T03:14:01.715Z,19.70
2022-10-05T03:16:47.480Z,19.70
2022-10-05T03:19:33.478Z,19.70
2022-10-05T03:22:18.844Z,19.70
2022-10-05T03:24:51.534Z,19.70
2022-10-05T03:27:41.587Z,19.70
2022-10-05T03:30:22.843Z,19.70
2022-10-05T03:32:49.476Z,19.70
2022-10-05T03:35:30.835Z,20.40
2022-10-05T03:38:00.580Z,19.70
2022-10-05T03:40:27.342Z,19.60
2022-10-05T03:43:06.485Z,19.70
2022-10-05T03:45:46.757Z,19.60
2022-10-05T03:48:45.909Z,19.70
2022-10-05T03:51:20.910Z,19.60
2022-10-05T03:53:49.617Z,19.70
2022-10-05T03:56:19.244Z,19.70
2022-10-05T03:59:01.564Z,19.80
2022-10-05T04:01:47.936Z,19.80
2022-10-05T04:04:20.321Z,19.90
2022-10-05T04:06:50.596Z,19.90
2022-10-05T04:09:21.084Z,19.90
2022-10-05T04:11:52.946Z,19.90
2022-10-05T04:14:25.658Z,19.90
2022-10-05T04:16:59.822Z,19.90
2022-10-05T04:19:37.272Z,19.90
2022-10-05T04:22:07.690Z,19.90
2022-10-05T04:24:36.748Z,20.00
2022-10-05T04:27:07.429Z,20.00
2022-10-05T04:29:53.108Z,19.90
2022-10-05T04:32:29.634Z,19.90
2022-10-05T04:35:14.879Z,20.00
2022-10-05T04:37:48.015Z,19.90
2022-10-05T04:40:35.861Z,20.20
2022-10-05T04:43:05.505Z,20.00
2022-10-05T04:45:35.387Z,20.00
2022-10-05T04:48:16.789Z,20.00
2022-10-05T04:50:57.759Z,20.00
2022-10-05T04:53:33.598Z,20.00
2022-10-05T04:56:08.281Z,19.80
2022-10-05T04:59:01.248Z,20.00
2022-10-05T05:01:28.223Z,20.00
2022-10-05T05:03:58.234Z,20.00
2022-10-05T05:06:33.945Z,20.00
2022-10-05T05:09:00.570Z,20.00
2022-10-05T05:11:34.848Z,20.10
2022-10-05T05:14:04.484Z,20.00
2022-10-05T05:16:39.304Z,20.00
2022-10-05T05:19:12.084Z,20.00
2022-10-05T05:21:38.699Z,20.00
2022-10-05T05:24:10.606Z,20.00
2022-10-05T05:26:55.869Z,20.00
2022-10-05T05:29:29.252Z,20.00
2022-10-05T05:32:21.059Z,20.00
2022-10-05T05:34:59.876Z,20.00
2022-10-05T05:37:38.158Z,20.00
2022-10-05T05:40:16.260Z,19.90
2022-10-05T05:43:18.493Z,19.90
2022-10-05T05:46:01.255Z,20.00
2022-10-05T05:48:38.742Z,20.00
2022-10-05T05:51:31.786Z,19.90
2022-10-05T05:54:16.972Z,20.00
2022-10-05T05:56:53.134Z,20.00
2022-10-05T05:59:24.655Z,20.00
2022-10-05T06:01:54.241Z,20.00
2022-10-05T06:04:33.315Z,20.00
2022-10-05T06:07:02.048Z,20.00
2022-10-05T06:09:28.635Z,20.10
2022-10-05T06:12:00.841Z,20.50
2022-10-05T06:14:33.597Z,20.30
2022-10-05T06:17:06.452Z,20.30
2022-10-05T06:19:33.896Z,20.40
2022-10-05T06:22:19.202Z,20.40
2022-10-05T06:24:55.332Z,20.40
2022-10-05T06:27:38.460Z,20.40
2022-10-05T06:30:08.325Z,20.30
2022-10-05T06:32:50.055Z,20.30
2022-10-05T06:35:25.936Z,20.50
2022-10-05T06:38:01.901Z,20.30
2022-10-05T06:40:35.167Z,20.30
2022-10-05T06:43:14.117Z,20.20
2022-10-05T06:45:53.304Z,20.20
2022-10-05T06:48:27.268Z,20.30
2022-10-05T06:51:14.171Z,20.20
2022-10-05T06:53:45.156Z,20.20
2022-10-05T06:56:15.783Z,20.20
2022-10-05T06:58:42.425Z,20.40
2022-10-05T07:01:18.882Z,20.20
2022-10-05T07:03:56.001Z,20.20
2022-10-05T07:06:30.684Z,20.40
2022-10-05T07:09:06.525Z,20.20
2022-10-05T07:11:36.283Z,20.20
2022-10-05T07:14:08.427Z,20.20
2022-10-05T07:16:45.667Z,20.20
2022-10-05T07:19:21.472Z,20.20
2022-10-05T07:21:51.105Z,20.20
2022-10-05T07:24:36.532Z,20.20
2022-10-05T07:27:12.284Z,20.20
2022-10-05T07:29:39.281Z,20.20
2022-10-05T07:32:22.428Z,20.20
2022-10-05T07:34:55.096Z,20.20
2022-10-05T07:37:48.967Z,20.20
2022-10-05T07:40:19.409Z,20.20
2022-10-05T07:42:56.491Z,20.20
2022-10-05T07:45:26.256Z,20.20
2022-10-05T07:47:57.736Z,20.20
2022-10-05T07:50:27.301Z,20.20
2022-10-05T07:52:58.610Z,20.20
2022-10-05T07:55:51.667Z,20.20
2022-10-05T07:58:21.310Z,20.20
2022-10-05T08:01:11.443Z,20.20
2022-10-05T08:03:38.356Z,20.20
2022-10-05T08:06:06.331Z,20.20
2022-10-05T08:08:47.703Z,20.20
2022-10-05T08:11:17.009Z,20.20
2022-10-05T08:13:52.131Z,20.20
2022-10-05T08:16:19.763Z,20.20
2022-10-05T08:19:25.187Z,20.20
2022-10-05T08:21:58.455Z,20.20
2022-10-05T08:24:46.419Z,20.20
2022-10-05T08:27:14.038Z,20.20
2022-10-05T08:29:49.924Z,20.20
2022-10-05T08:32:24.569Z,20.20
2022-10-05T08:34:55.593Z,20.20
2022-10-05T08:37:27.686Z,20.30
2022-10-05T08:40:00.457Z,20.20
2022-10-05T08:42:39.592Z,20.20
2022-10-05T08:45:06.242Z,20.20
2022-10-05T08:47:33.794Z,20.20
2022-10-05T08:50:12.836Z,20.50
2022-10-05T08:52:56.846Z,20.20
2022-10-05T08:55:31.380Z,20.20
2022-10-05T08:58:04.145Z,20.20
2022-10-05T09:00:49.386Z,20.20
2022-10-05T09:03:19.177Z,20.20
2022-10-05T09:05:48.860Z,20.20
2022-10-05T09:08:31.093Z,20.30
2022-10-05T09:10:57.746Z,20.30
2022-10-05T09:13:28.896Z,20.20
2022-10-05T09:16:14.009Z,20.30
2022-10-05T09:18:53.056Z,20.30
2022-10-05T09:21:29.126Z,20.30
2022-10-05T09:24:06.006Z,20.30
2022-10-05T09:26:51.314Z,20.30
2022-10-05T09:29:36.801Z,20.30
2022-10-05T09:32:22.206Z,20.30
2022-10-05T09:34:56.129Z,20.20
2022-10-05T09:37:29.221Z,20.30
2022-10-05T09:40:14.315Z,20.30
2022-10-05T09:42:51.987Z,20.30
2022-10-05T09:45:21.765Z,20.30
2022-10-05T09:47:54.707Z,20.30
2022-10-05T09:50:22.834Z,20.30
2022-10-05T09:52:54.362Z,20.30
2022-10-05T09:55:31.213Z,20.30
2022-10-05T09:58:22.563Z,20.30
2022-10-05T10:01:09.838Z,20.30
2022-10-05T10:04:01.152Z,20.30
2022-10-05T10:06:46.626Z,20.30
2022-10-05T10:09:19.394Z,20.40
2022-10-05T10:12:09.059Z,20.30
2022-10-05T10:14:39.203Z,20.30
2022-10-05T10:17:12.837Z,20.40
2022-10-05T10:19:39.453Z,20.40
2022-10-05T10:22:24.974Z,20.40
2022-10-05T10:25:10.340Z,20.40
2022-10-05T10:27:56.099Z,20.40
2022-10-05T10:30:26.290Z,20.40
2022-10-05T10:33:02.516Z,20.40
2022-10-05T10:35:32.216Z,20.40
2022-10-05T10:38:05.007Z,20.40
2022-10-05T10:40:43.962Z,20.40
2022-10-05T10:43:29.794Z,20.40
2022-10-05T10:45:56.785Z,20.40
2022-10-05T10:48:29.712Z,20.50
2022-10-05T10:51:05.758Z,20.60
2022-10-05T10:53:44.680Z,20.60
2022-10-05T10:56:11.969Z,20.70
2022-10-05T10:58:40.042Z,20.70
2022-10-05T11:01:29.554Z,20.80
2022-10-05T11:04:00.035Z,20.70
2022-10-05T11:06:38.958Z,20.70
2022-10-05T11:09:24.485Z,20.70
2022-10-05T11:11:52.122Z,20.70
2022-10-05T11:14:21.125Z,20.70
2022-10-05T11:16:53.764Z,20.70
2022-10-05T11:19:35.177Z,20.70
2022-10-05T11:22:13.076Z,20.60
2022-10-05T11:24:46.428Z,20.60
2022-10-05T11:27:32.996Z,20.60
2022-10-05T11:30:19.365Z,20.60
2022-10-05T11:32:49.005Z,20.70
2022-10-05T11:35:36.900Z,20.60
2022-10-05T11:38:22.449Z,20.60
2022-10-05T11:40:49.988Z,20.60
2022-10-05T11:43:16.885Z,20.60
2022-10-05T11:45:58.816Z,20.60
2022-10-05T11:48:36.215Z,20.60
2022-10-05T11:51:14.997Z,20.60
2022-10-05T11:53:44.987Z,20.60
2022-10-05T11:56:22.104Z,20.60
2022-10-05T11:59:03.049Z,20.80
2022-10-05T12:01:37.716Z,20.60
2022-10-05T12:04:13.560Z,20.60
2022-10-05T12:06:40.677Z,21.20
2022-10-05T12:09:15.630Z,20.60
2022-10-05T12:11:58.580Z,20.60
2022-10-05T12:14:46.121Z,20.60
2022-10-05T12:17:15.952Z,20.60
2022-10-05T12:19:45.691Z,20.60
2022-10-05T12:22:15.819Z,20.60
2022-10-05T12:24:54.271Z,20.60
2022-10-05T12:27:25.440Z,20.60
2022-10-05T12:29:52.166Z,20.60
2022-10-05T12:32:22.804Z,20.60
2022-10-05T12:35:01.080Z,20.60
2022-10-05T12:37:46.986Z,20.80
2022-10-05T12:40:25.177Z,20.60
2022-10-05T12:43:00.811Z,20.60
2022-10-05T12:45:30.635Z,20.60
2022-10-05T12:48:03.391Z,20.50
2022-10-05T12:50:39.126Z,20.50
2022-10-05T12:53:34.683Z,20.50
2022-10-05T12:56:05.136Z,20.50
2022-10-05T12:58:41.318Z,20.50
2022-10-05T13:01:17.362Z,20.50
2022-10-05T13:03:49.203Z,20.50
2022-10-05T13:06:15.852Z,20.50
2022-10-05T13:08:42.508Z,21.00
2022-10-05T13:11:15.155Z,20.50
2022-10-05T13:13:48.935Z,20.50
2022-10-05T13:16:19.410Z,20.60
2022-10-05T13:19:00.507Z,20.50
2022-10-05T13:21:34.965Z,20.60
2022-10-05T13:24:09.638Z,20.60
2022-10-05T13:26:40.242Z,20.60
2022-10-05T13:29:09.916Z,20.30
2022-10-05T13:31:57.333Z,20.50
2022-10-05T13:34:42.926Z,20.50
2022-10-05T13:37:33.262Z,20.50
2022-10-05T13:39:59.944Z,20.50
2022-10-05T13:42:46.448Z,20.50
2022-10-05T13:45:17.253Z,20.50
2022-10-05T13:47:50.228Z,20.40
2022-10-05T13:50:37.171Z,20.50
2022-10-05T13:53:24.177Z,20.50
2022-10-05T13:56:02.573Z,20.50
2022-10-05T13:58:37.053Z,20.50
2022-10-05T14:01:08.813Z,20.50
2022-10-05T14:03:37.026Z,20.50
2022-10-05T14:06:10.826Z,20.50
2022-10-05T14:08:47.469Z,20.50
2022-10-05T14:11:26.710Z,20.50
2022-10-05T14:14:02.606Z,20.50
2022-10-05T14:16:31.102Z,20.50
2022-10-05T14:19:03.892Z,20.40
2022-10-05T14:21:50.735Z,20.40
2022-10-05T14:24:32.251Z,20.40
2022-10-05T14:27:18.275Z,20.40
2022-10-05T14:29:52.246Z,20.40
2022-10-05T14:32:23.644Z,20.40
2022-10-05T14:34:59.316Z,20.40
2022-10-05T14:37:31.680Z,20.30
2022-10-05T14:40:03.610Z,20.30
2022-10-05T14:42:44.940Z,20.30
2022-10-05T14:45:15.664Z,20.30
2022-10-05T14:47:53.095Z,20.30
2022-10-05T14:50:21.274Z,20.40
2022-10-05T14:53:03.971Z,20.30
2022-10-05T14:55:40.077Z,20.30
2022-10-05T14:58:26.099Z,20.30
2022-10-05T15:00:58.956Z,20.30
2022-10-05T15:03:33.210Z,20.40
2022-10-05T15:06:02.286Z,20.40
2022-10-05T15:08:41.744Z,20.40
2022-10-05T15:11:13.466Z,20.40
2022-10-05T15:13:41.861Z,20.50
2022-10-05T15:16:11.674Z,20.50
2022-10-05T15:19:04.669Z,20.50
2022-10-05T15:21:43.252Z,20.50
2022-10-05T15:24:21.659Z,20.50
2022-10-05T15:26:49.764Z,20.50
2022-10-05T15:29:17.954Z,20.50
2022-10-05T15:32:06.542Z,20.50
2022-10-05T15:34:33.584Z,20.50
2022-10-05T15:37:15.130Z,20.50
2022-10-05T15:39:49.317Z,20.50
2022-10-05T15:42:22.328Z,20.50
2022-10-05T15:44:52.241Z,20.50
2022-10-05T15:47:22.560Z,20.50
2022-10-05T15:50:02.907Z,20.50
2022-10-05T15:52:37.239Z,20.50
2022-10-05T15:55:22.268Z,20.50
2022-10-05T15:57:56.942Z,20.50
2022-10-05T16:00:25.817Z,20.50
2022-10-05T16:03:01.687Z,20.50
2022-10-05T16:06:02.284Z,20.50
2022-10-05T16:08:56.049Z,20.50
2022-10-05T16:11:25.747Z,20.50
2022-10-05T16:14:14.934Z,20.50
2022-10-05T16:16:49.942Z,20.50
2022-10-05T16:19:34.948Z,20.90
2022-10-05T16:22:05.037Z,20.50
2022-10-05T16:24:59.336Z,20.60
2022-10-05T16:27:47.390Z,20.50
2022-10-05T16:30:16.706Z,20.50
2022-10-05T16:32:49.973Z,20.50
2022-10-05T16:35:25.983Z,20.50
2022-10-05T16:38:00.400Z,20.50
2022-10-05T16:40:36.217Z,20.50
2022-10-05T16:43:21.414Z,20.60
2022-10-05T16:46:10.052Z,20.70
2022-10-05T16:48:55.472Z,20.80
2022-10-05T16:51:36.793Z,20.80
2022-10-05T16:54:03.423Z,20.80
2022-10-05T16:56:38.644Z,20.80
2022-10-05T16:59:24.164Z,20.80
2022-10-05T17:02:08.172Z,20.70
2022-10-05T17:04:52.319Z,20.70
2022-10-05T17:07:32.885Z,20.70
2022-10-05T17:10:18.496Z,20.70
2022-10-05T17:12:55.849Z,20.70
2022-10-05T17:15:28.763Z,20.70
2022-10-05T17:17:55.494Z,20.70
2022-10-05T17:20:39.015Z,20.70
2022-10-05T17:23:29.341Z,20.60
2022-10-05T17:26:04.360Z,20.60
2022-10-05T17:28:40.015Z,20.60
2022-10-05T17:31:06.857Z,20.60
2022-10-05T17:33:34.348Z,20.70
2022-10-05T17:36:04.631Z,20.60
2022-10-05T17:38:31.303Z,21.10
2022-10-05T17:41:03.423Z,20.60
2022-10-05T17:43:33.611Z,20.60
2022-10-05T17:46:07.552Z,20.60
2022-10-05T17:48:37.247Z,20.60
2022-10-05T17:51:33.798Z,20.60
2022-10-05T17:54:40.359Z,20.50
2022-10-05T17:57:06.964Z,20.70
2022-10-05T17:59:38.734Z,20.90
2022-10-05T18:02:14.586Z,20.50
2022-10-05T18:04:48.520Z,20.50
2022-10-05T18:07:19.137Z,20.70
2022-10-05T18:10:00.011Z,20.50
2022-10-05T18:12:39.003Z,20.50
2022-10-05T18:15:05.599Z,20.50
2022-10-05T18:17:35.903Z,20.50
2022-10-05T18:20:22.491Z,20.50
2022-10-05T18:22:51.046Z,20.50
2022-10-05T18:25:29.533Z,20.50
2022-10-05T18:28:00.881Z,20.50
2022-10-05T18:30:31.133Z,20.50
2022-10-05T18:32:57.938Z,20.50
2022-10-05T18:35:24.687Z,20.50
2022-10-05T18:37:57.442Z,20.50
2022-10-05T18:40:34.631Z,20.50
2022-10-05T18:43:20.947Z,20.50
2022-10-05T18:46:38.087Z,20.40
2022-10-05T18:49:23.291Z,20.50
2022-10-05T18:52:04.184Z,20.50
2022-10-05T18:54:43.069Z,20.40
2022-10-05T18:57:28.671Z,20.50
2022-10-05T19:00:07.707Z,20.50
2022-10-05T19:02:36.126Z,20.50
2022-10-05T19:08:10.661Z,20.50
2022-10-05T19:10:50.801Z,20.40
2022-10-05T19:13:20.436Z,20.40
2022-10-05T19:15:54.125Z,20.40
2022-10-05T19:18:25.805Z,20.80
2022-10-05T19:20:58.056Z,20.40
2022-10-05T19:23:30.655Z,20.40
2022-10-05T19:26:17.680Z,20.40
2022-10-05T19:28:44.355Z,20.40
2022-10-05T19:31:18.015Z,20.90
2022-10-05T19:33:44.695Z,20.40
2022-10-05T19:36:14.388Z,20.40
2022-10-05T19:38:54.981Z,20.40
2022-10-05T19:41:40.875Z,20.40
2022-10-05T19:44:13.694Z,20.40
2022-10-05T19:46:40.413Z,20.40
2022-10-05T19:49:09.055Z,20.40
2022-10-05T19:51:37.069Z,20.40
2022-10-05T19:54:25.202Z,20.40
2022-10-05T19:56:52.962Z,20.40
2022-10-05T19:59:27.178Z,20.30
2022-10-05T20:01:55.767Z,20.30
2022-10-05T20:04:33.867Z,20.30
2022-10-05T20:07:01.983Z,20.30
2022-10-05T20:09:29.280Z,20.30
2022-10-05T20:11:56.794Z,20.30
2022-10-05T20:14:33.452Z,20.30
2022-10-05T20:17:35.422Z,20.30
2022-10-05T20:20:24.064Z,20.30
2022-10-05T20:22:50.727Z,20.30
2022-10-05T20:25:17.367Z,20.80
2022-10-05T20:27:44.101Z,20.20
2022-10-05T20:30:12.445Z,20.20
2022-10-05T20:32:39.126Z,20.20
2022-10-05T20:35:06.997Z,20.20
2022-10-05T20:37:33.923Z,20.20
2022-10-05T20:40:00.731Z,20.20
2022-10-05T20:42:27.390Z,20.20
2022-10-05T20:44:56.816Z,20.20
2022-10-05T20:47:24.183Z,20.20
2022-10-05T20:49:50.838Z,20.20
2022-10-05T20:52:17.484Z,20.50
2022-10-05T20:57:11.128Z,20.20
2022-10-05T20:59:37.838Z,20.20
2022-10-05T21:02:04.757Z,20.20
2022-10-05T21:04:40.838Z,20.20
2022-10-05T21:07:08.325Z,20.20
2022-10-05T21:09:37.964Z,20.20
2022-10-05T21:12:04.887Z,20.60
2022-10-05T21:14:34.410Z,20.20
2022-10-05T21:17:02.026Z,20.20
2022-10-05T21:19:29.570Z,20.10
2022-10-05T21:21:59.239Z,20.10
2022-10-05T21:24:26.189Z,20.20
2022-10-05T21:26:55.334Z,20.10
2022-10-05T21:29:22.173Z,20.10
2022-10-05T21:31:48.944Z,20.10
2022-10-05T21:34:15.825Z,20.20
2022-10-05T21:36:42.466Z,20.10
2022-10-05T21:39:09.151Z,20.10
2022-10-05T21:41:35.884Z,20.10
2022-10-05T21:44:02.638Z,20.10
2022-10-05T21:46:29.618Z,20.10
2022-10-05T21:48:56.343Z,20.20
2022-10-05T21:51:25.051Z,20.30
2022-10-05T21:53:56.800Z,20.10
2022-10-05T21:56:25.010Z,20.10
2022-10-05T21:58:52.418Z,20.10
2022-10-05T22:01:22.639Z,20.10
2022-10-05T22:03:49.912Z,20.10
2022-10-05T22:06:16.575Z,20.10
2022-10-05T22:08:43.275Z,20.10
2022-10-05T22:11:11.670Z,20.10
2022-10-05T22:13:49.133Z,20.10
2022-10-05T22:16:16.487Z,20.10
2022-10-05T22:18:43.169Z,20.10
2022-10-05T22:21:12.088Z,20.10
2022-10-05T22:23:39.520Z,20.00
2022-10-05T22:26:07.212Z,20.10
2022-10-05T22:28:34.306Z,20.10
2022-10-05T22:31:02.897Z,20.10
2022-10-05T22:33:29.789Z,20.10
2022-10-05T22:35:57.800Z,20.10
2022-10-05T22:38:25.068Z,20.10
2022-10-05T22:40:52.175Z,20.10
2022-10-05T22:43:18.938Z,20.00
2022-10-05T22:45:45.706Z,20.10
2022-10-05T22:48:14.337Z,20.10
2022-10-05T22:50:43.754Z,20.00
2022-10-05T22:53:10.520Z,20.10
2022-10-05T22:55:37.165Z,20.80
2022-10-05T22:58:03.815Z,20.50
2022-10-05T23:00:53.451Z,19.60
2022-10-05T23:03:17.340Z,20.00
2022-10-05T23:05:44.030Z,20.10
2022-10-05T23:08:10.726Z,20.00
2022-10-05T23:10:37.556Z,20.50
2022-10-05T23:13:05.029Z,20.40
2022-10-05T23:15:31.758Z,20.00
2022-10-05T23:17:58.551Z,20.00
2022-10-05T23:20:26.072Z,20.00
2022-10-05T23:22:52.803Z,20.00
2022-10-05T23:25:19.553Z,20.00
2022-10-05T23:27:46.341Z,20.30
2022-10-05T23:30:13.045Z,20.00
2022-10-05T23:32:43.657Z,20.20
2022-10-05T23:35:11.797Z,19.80
2022-10-05T23:37:39.037Z,20.00
2022-10-05T23:40:07.998Z,20.20
2022-10-05T23:42:35.422Z,20.00
2022-10-05T23:45:02.392Z,20.00
2022-10-05T23:47:29.216Z,20.00
2022-10-05T23:49:55.982Z,20.30
2022-10-05T23:52:22.798Z,20.00
2022-10-05T23:54:49.524Z,20.00
2022-10-05T23:57:17.876Z,20.00
2022-10-05T23:59:44.844Z,20.90
